Time;durP1;ratioP1;P1;durP2;ratioP2;P2;SDS_P1;SDS_P2;PMS_P1;PMS_P2;Temp;Humidity;BMP_temperature;BMP_pressure;BME280_temperature;BME280_humidity;BME280_pressure;Samples;Min_cycle;Max_cycle;Signal;HPM_P1;HPM_P2
2022/06/08 00:02:08;;;;;;;2.97;1.90;;;;;;;;;;4734089;30;20048;-59
2022/06/08 00:04:36;;;;;;;4.45;2.03;;;;;;;;;;4733725;30;20144;-59
2022/06/08 00:07:04;;;;;;;4.43;2.40;;;;;;;;;;4733942;30;20110;-59
2022/06/08 00:09:31;;;;;;;3.90;2.20;;;;;;;;;;4734140;30;20051;-59
2022/06/08 00:12:02;;;;;;;5.05;2.65;;;;;;;;;;4733933;30;20044;-59
2022/06/08 00:14:29;;;;;;;4.90;2.20;;;;;;;;;;4734419;30;20135;-60
2022/06/08 00:16:57;;;;;;;4.18;1.92;;;;;;;;;;4733889;30;20061;-59
2022/06/08 00:19:24;;;;;;;2.97;2.20;;;;;;;;;;4734237;30;20115;-59
2022/06/08 00:21:52;;;;;;;5.45;2.63;;;;;;;;;;4733847;30;20053;-59
2022/06/08 00:24:19;;;;;;;4.30;2.20;;;;;;;;;;4733973;30;20049;-59
2022/06/08 00:26:46;;;;;;;2.72;1.60;;;;;;;;;;4734058;30;20107;-59
2022/06/08 00:29:14;;;;;;;4.10;1.60;;;;;;;;;;4733885;30;20154;-59
2022/06/08 00:31:44;;;;;;;4.82;2.28;;;;;;;;;;4732786;30;20140;-59
2022/06/08 00:34:14;;;;;;;4.97;2.10;;;;;;;;;;4747085;30;20059;-59
2022/06/08 00:36:41;;;;;;;4.25;1.98;;;;;;;;;;4733962;30;20048;-60
2022/06/08 00:39:08;;;;;;;2.90;2.03;;;;;;;;;;4747073;30;20052;-61
2022/06/08 00:41:43;;;;;;;6.45;2.38;;;;;;;;;;4733859;30;20051;-59
2022/06/08 00:44:27;;;;;;;2.90;2.03;;;;;;;;;;4735356;30;20044;-59
2022/06/08 00:46:55;;;;;;;3.60;2.28;;;;;;;;;;4737588;30;20109;-59
2022/06/08 00:49:33;;;;;;;3.00;1.90;;;;;;;;;;4750526;30;20059;-59
2022/06/08 00:52:01;;;;;;;4.05;2.67;;;;;;;;;;4737174;30;20079;-57
2022/06/08 00:54:34;;;;;;;4.65;2.35;;;;;;;;;;4736119;30;20045;-58
2022/06/08 00:57:19;;;;;;;5.30;2.70;;;;;;;;;;4750319;30;20048;-59
2022/06/08 00:59:50;;;;;;;2.95;2.10;;;;;;;;;;4736854;30;20118;-59
2022/06/08 01:02:18;;;;;;;6.20;2.45;;;;;;;;;;4737203;30;20040;-59
2022/06/08 01:04:47;;;;;;;4.20;2.20;;;;;;;;;;4750321;30;20056;-59
2022/06/08 01:07:20;;;;;;;2.72;2.08;;;;;;;;;;4735660;30;20135;-60
2022/06/08 01:09:49;;;;;;;3.80;2.70;;;;;;;;;;4737080;30;20048;-59
2022/06/08 01:12:20;;;;;;;7.38;2.42;;;;;;;;;;4736698;30;20051;-59
2022/06/08 01:14:53;;;;;;;4.57;2.30;;;;;;;;;;4735602;30;20044;-59
2022/06/08 01:17:20;;;;;;;3.25;2.38;;;;;;;;;;4735457;30;20521;-59
2022/06/08 01:19:53;;;;;;;4.32;2.10;;;;;;;;;;4735475;30;20097;-59
2022/06/08 01:22:25;;;;;;;4.50;2.10;;;;;;;;;;4735484;30;20058;-60
2022/06/08 01:24:55;;;;;;;3.50;2.08;;;;;;;;;;4750229;30;20536;-60
2022/06/08 01:27:37;;;;;;;4.40;2.30;;;;;;;;;;4735313;30;20098;-59
2022/06/08 01:30:14;;;;;;;3.10;2.03;;;;;;;;;;4735341;30;20506;-59
2022/06/08 01:32:47;;;;;;;3.00;2.03;;;;;;;;;;4736623;30;20053;-59
2022/06/08 01:35:32;;;;;;;5.32;1.85;;;;;;;;;;4736299;30;20045;-59
2022/06/08 01:38:11;;;;;;;3.30;2.35;;;;;;;;;;4735480;30;20056;-60
2022/06/08 01:41:02;;;;;;;3.60;2.25;;;;;;;;;;4735250;30;20525;-59
2022/06/08 01:43:54;;;;;;;3.30;2.22;;;;;;;;;;4736297;30;20099;-59
2022/06/08 01:46:24;;;;;;;4.22;2.10;;;;;;;;;;4736183;30;20110;-60
2022/06/08 01:49:18;;;;;;;3.05;2.10;;;;;;;;;;4734973;30;20387;-60
2022/06/08 01:52:14;;;;;;;3.40;2.43;;;;;;;;;;4736270;30;20057;-60
2022/06/08 01:55:06;;;;;;;3.72;2.22;;;;;;;;;;4734302;30;20136;-60
2022/06/08 01:58:00;;;;;;;6.75;2.33;;;;;;;;;;4749508;30;20087;-59
2022/06/08 02:00:33;;;;;;;3.47;1.98;;;;;;;;;;4734717;30;20053;-60
2022/06/08 02:03:14;;;;;;;3.33;1.88;;;;;;;;;;4734503;30;20053;-59
2022/06/08 02:05:43;;;;;;;2.28;1.65;;;;;;;;;;4735763;30;20065;-60
2022/06/08 02:08:30;;;;;;;2.88;1.98;;;;;;;;;;4734767;30;20135;-60
2022/06/08 02:11:05;;;;;;;3.28;2.28;;;;;;;;;;4720602;30;20056;-65
2022/06/08 02:13:44;;;;;;;3.28;2.00;;;;;;;;;;4734695;30;20057;-59
2022/06/08 02:16:19;;;;;;;5.10;2.38;;;;;;;;;;4734501;30;20076;-60
2022/06/08 02:18:56;;;;;;;3.22;2.03;;;;;;;;;;4734469;30;20110;-59
2022/06/08 02:21:32;;;;;;;3.80;1.73;;;;;;;;;;4735597;30;20100;-60
2022/06/08 02:24:15;;;;;;;2.03;1.50;;;;;;;;;;4734276;30;20053;-60
2022/06/08 02:27:00;;;;;;;3.63;2.00;;;;;;;;;;4749074;30;20088;-59
2022/06/08 02:29:43;;;;;;;2.70;1.70;;;;;;;;;;4734307;30;20080;-58
2022/06/08 02:35:10;;;;;;;4.22;2.00;;;;;;;;;;4733867;30;20519;-60
2022/06/08 02:37:39;;;;;;;4.45;2.30;;;;;;;;;;4734079;30;20053;-61
2022/06/08 02:40:11;;;;;;;9.23;2.30;;;;;;;;;;4735118;30;20049;-61
2022/06/08 02:42:47;;;;;;;4.47;1.52;;;;;;;;;;4748580;30;20409;-60
2022/06/08 02:45:43;;;;;;;4.60;1.80;;;;;;;;;;4735084;30;20041;-61
2022/06/08 02:48:13;;;;;;;2.60;1.70;;;;;;;;;;4732607;30;20050;-60
2022/06/08 02:50:57;;;;;;;3.90;1.90;;;;;;;;;;4748855;30;20135;-58
2022/06/08 02:53:33;;;;;;;3.75;1.80;;;;;;;;;;4734163;30;20456;-60
2022/06/08 02:56:32;;;;;;;3.33;1.90;;;;;;;;;;4733800;30;20056;-60
2022/06/08 02:59:12;;;;;;;2.25;1.58;;;;;;;;;;4748420;30;20147;-60
2022/06/08 03:01:50;;;;;;;4.28;1.50;;;;;;;;;;4734602;30;20563;-60
2022/06/08 03:04:23;;;;;;;2.92;1.77;;;;;;;;;;4733539;30;20577;-61
2022/06/08 03:07:00;;;;;;;3.47;1.60;;;;;;;;;;4733174;30;20132;-61
2022/06/08 03:09:31;;;;;;;2.92;1.65;;;;;;;;;;4719453;30;20060;-60
2022/06/08 03:12:05;;;;;;;46.55;22.92;;;;;;;;;;4734999;30;20048;-60
2022/06/08 03:14:34;;;;;;;9.48;5.30;;;;;;;;;;4733560;30;20078;-60
2022/06/08 03:17:07;;;;;;;3.00;1.80;;;;;;;;;;4734602;30;20071;-61
2022/06/08 03:19:36;;;;;;;3.47;1.45;;;;;;;;;;4748157;30;20106;-61
2022/06/08 03:22:05;;;;;;;4.20;1.27;;;;;;;;;;4733413;30;20076;-60
2022/06/08 03:24:33;;;;;;;2.63;1.48;;;;;;;;;;4734716;30;20052;-61
2022/06/08 03:27:05;;;;;;;5.03;1.70;;;;;;;;;;4732684;30;20425;-61
2022/06/08 03:29:33;;;;;;;6.85;1.08;;;;;;;;;;4748149;30;20057;-61
2022/06/08 03:32:02;;;;;;;1.65;0.80;;;;;;;;;;4748005;30;20056;-59
2022/06/08 03:34:32;;;;;;;2.35;1.10;;;;;;;;;;4748122;30;20051;-57
2022/06/08 03:37:00;;;;;;;2.10;0.90;;;;;;;;;;4747998;30;20169;-61
2022/06/08 03:39:29;;;;;;;1.45;0.90;;;;;;;;;;4734595;30;20135;-61
2022/06/08 03:41:57;;;;;;;2.40;0.82;;;;;;;;;;4748078;30;20052;-67
2022/06/08 03:44:24;;;;;;;2.40;1.00;;;;;;;;;;4734186;30;20049;-61
2022/06/08 03:47:20;;;;;;;4.60;1.17;;;;;;;;;;4733252;30;20920;-60
2022/06/08 03:49:53;;;;;;;1.30;0.90;;;;;;;;;;4734267;30;20052;-72
2022/06/08 03:52:26;;;;;;;32.08;14.82;;;;;;;;;;4734247;30;20053;-59
2022/06/08 03:54:59;;;;;;;18.20;9.10;;;;;;;;;;4734085;30;20069;-61
2022/06/08 03:57:29;;;;;;;4.28;2.35;;;;;;;;;;4734110;30;20053;-61
2022/06/08 04:00:04;;;;;;;6.13;1.52;;;;;;;;;;4747898;30;20063;-60
2022/06/08 04:02:47;;;;;;;2.20;1.10;;;;;;;;;;4734169;30;20048;-60
2022/06/08 04:05:23;;;;;;;3.05;0.73;;;;;;;;;;4732772;30;20061;-60
2022/06/08 04:07:51;;;;;;;1.70;1.00;;;;;;;;;;4732841;30;20131;-61
2022/06/08 04:10:20;;;;;;;2.95;0.98;;;;;;;;;;4733061;30;20041;-61
2022/06/08 04:12:51;;;;;;;1.70;0.70;;;;;;;;;;4732637;30;20098;-61
2022/06/08 04:18:15;;;;;;;2.83;1.20;;;;;;;;;;4740493;30;20053;-61
2022/06/08 04:20:49;;;;;;;1.67;0.90;;;;;;;;;;4765263;30;20409;-61
2022/06/08 04:23:19;;;;;;;3.22;1.00;;;;;;;;;;4751422;30;20048;-60
2022/06/08 04:25:49;;;;;;;62.15;30.40;;;;;;;;;;4750336;30;20058;-60
2022/06/08 04:28:17;;;;;;;11.13;6.13;;;;;;;;;;4764940;30;20124;-61
2022/06/08 04:30:48;;;;;;;6.32;1.83;;;;;;;;;;4738869;30;20056;-61
2022/06/08 04:33:17;;;;;;;4.47;1.35;;;;;;;;;;4751369;30;20135;-61
2022/06/08 04:35:45;;;;;;;2.42;1.20;;;;;;;;;;4765211;30;20048;-61
2022/06/08 04:38:12;;;;;;;2.22;1.23;;;;;;;;;;4751312;30;20135;-61
2022/06/08 04:40:41;;;;;;;2.10;1.10;;;;;;;;;;4750072;30;20048;-61
2022/06/08 04:43:09;;;;;;;2.70;1.23;;;;;;;;;;4751330;30;20094;-60
2022/06/08 04:45:37;;;;;;;4.30;1.45;;;;;;;;;;4750098;30;20044;-61
2022/06/08 04:48:08;;;;;;;5.22;1.20;;;;;;;;;;4751283;30;20056;-60
2022/06/08 04:50:36;;;;;;;3.53;1.20;;;;;;;;;;4764825;30;20052;-61
2022/06/08 04:53:04;;;;;;;7.13;1.25;;;;;;;;;;4750045;30;20048;-61
2022/06/08 04:55:35;;;;;;;2.38;1.13;;;;;;;;;;4749917;30;20059;-59
2022/06/08 04:58:07;;;;;;;3.05;1.08;;;;;;;;;;4743999;30;20531;-60
2022/06/08 05:00:36;;;;;;;7.82;1.15;;;;;;;;;;4746942;30;20138;-62
2022/06/08 05:03:09;;;;;;;2.65;1.30;;;;;;;;;;4733551;30;20597;-61
2022/06/08 05:05:40;;;;;;;2.70;1.40;;;;;;;;;;4746873;30;20056;-62
2022/06/08 05:08:11;;;;;;;3.67;0.85;;;;;;;;;;4747063;30;20139;-61
2022/06/08 05:10:43;;;;;;;4.68;1.52;;;;;;;;;;4732971;30;20413;-56
2022/06/08 05:13:14;;;;;;;3.10;0.80;;;;;;;;;;4746970;30;20076;-64
2022/06/08 05:15:45;;;;;;;1.48;0.93;;;;;;;;;;4747070;30;20060;-61
2022/06/08 05:18:15;;;;;;;2.30;0.90;;;;;;;;;;4733413;30;20055;-62
2022/06/08 05:20:44;;;;;;;1.38;0.73;;;;;;;;;;4747134;30;20079;-62
2022/06/08 05:23:22;;;;;;;2.58;0.70;;;;;;;;;;4746818;30;20427;-58
2022/06/08 05:25:52;;;;;;;2.58;0.80;;;;;;;;;;4732235;30;20087;-58
2022/06/08 05:28:20;;;;;;;3.67;1.83;;;;;;;;;;4746854;30;20051;-61
2022/06/08 05:30:56;;;;;;;3.97;0.95;;;;;;;;;;4748935;30;20059;-59
2022/06/08 05:33:27;;;;;;;;;;;;;;;;;;4750303;30;20118;-62
2022/06/08 05:35:58;;;;;;;1.38;0.63;;;;;;;;;;4750092;30;20395;-61
2022/06/08 05:38:29;;;;;;;4.50;0.98;;;;;;;;;;4743156;30;20139;-60
2022/06/08 05:40:56;;;;;;;3.85;0.80;;;;;;;;;;4749682;30;20097;-61
2022/06/08 05:43:24;;;;;;;1.58;0.75;;;;;;;;;;4736232;30;20080;-62
2022/06/08 05:45:56;;;;;;;3.95;0.75;;;;;;;;;;4749721;30;20445;-61
2022/06/08 05:48:23;;;;;;;1.55;0.75;;;;;;;;;;4736113;30;20059;-61
2022/06/08 05:50:51;;;;;;;2.55;0.77;;;;;;;;;;4749685;30;20048;-62
2022/06/08 05:53:25;;;;;;;1.05;0.52;;;;;;;;;;4749624;30;20057;-62
2022/06/08 05:55:53;;;;;;;1.52;0.60;;;;;;;;;;4757115;30;20070;-62
2022/06/08 05:58:24;;;;;;;2.70;0.82;;;;;;;;;;4734838;30;20041;-60
2022/06/08 06:00:54;;;;;;;5.75;0.80;;;;;;;;;;4749636;30;20219;-62
2022/06/08 06:03:22;;;;;;;3.58;0.70;;;;;;;;;;4734538;30;20706;-63
2022/06/08 06:05:51;;;;;;;2.42;0.70;;;;;;;;;;4749500;30;20083;-61
2022/06/08 06:08:21;;;;;;;2.95;0.60;;;;;;;;;;4735814;30;20087;-61
2022/06/08 06:10:53;;;;;;;0.70;0.60;;;;;;;;;;4734540;30;20059;-61
2022/06/08 06:13:32;;;;;;;2.03;0.60;;;;;;;;;;4749568;30;20414;-59
2022/06/08 06:16:00;;;;;;;8.30;2.85;;;;;;;;;;4749462;30;20080;-61
2022/06/08 06:18:29;;;;;;;2.45;0.90;;;;;;;;;;4734893;30;20051;-60
2022/06/08 06:21:25;;;;;;;3.85;0.60;;;;;;;;;;4728192;30;20064;-61
2022/06/08 06:24:15;;;;;;;1.63;0.70;;;;;;;;;;4735656;30;20106;-61
2022/06/08 06:27:01;;;;;;;2.63;0.85;;;;;;;;;;4735587;30;20067;-62
2022/06/08 06:29:51;;;;;;;2.15;0.50;;;;;;;;;;4735352;30;20477;-59
2022/06/08 06:32:30;;;;;;;37.35;26.48;;;;;;;;;;4749078;30;20467;-62
2022/06/08 06:34:59;;;;;;;3.10;1.95;;;;;;;;;;4735499;30;20131;-62
2022/06/08 06:37:28;;;;;;;1.38;0.82;;;;;;;;;;4748731;30;20139;-61
2022/06/08 06:39:58;;;;;;;1.83;0.70;;;;;;;;;;4735567;30;20037;-61
2022/06/08 06:42:32;;;;;;;3.30;0.87;;;;;;;;;;4735052;30;20051;-61
2022/06/08 06:45:26;;;;;;;2.70;0.80;;;;;;;;;;4732585;30;20300;-61
2022/06/08 06:48:19;;;;;;;2.40;0.60;;;;;;;;;;4733293;30;20060;-61
2022/06/08 06:50:47;;;;;;;0.70;0.50;;;;;;;;;;4748597;30;20129;-61
2022/06/08 06:53:15;;;;;;;2.63;0.70;;;;;;;;;;4734982;30;20565;-61
2022/06/08 06:55:51;;;;;;;0.90;0.60;;;;;;;;;;4735038;30;20417;-61
2022/06/08 06:58:25;;;;;;;3.50;0.75;;;;;;;;;;4745449;30;20064;-63
2022/06/08 07:00:59;;;;;;;2.85;0.60;;;;;;;;;;4731193;30;20045;-61
2022/06/08 07:03:29;;;;;;;1.10;0.60;;;;;;;;;;4731041;30;20587;-61
2022/06/08 07:05:57;;;;;;;1.00;0.60;;;;;;;;;;4745513;30;20414;-61
2022/06/08 07:08:26;;;;;;;2.95;0.90;;;;;;;;;;4730561;30;20136;-61
2022/06/08 07:13:43;;;;;;;2.17;0.77;;;;;;;;;;4730910;30;20103;-61
2022/06/08 07:16:11;;;;;;;2.25;0.82;;;;;;;;;;4717245;30;20496;-61
2022/06/08 07:18:39;;;;;;;2.10;0.98;;;;;;;;;;4717193;30;20056;-61
2022/06/08 07:21:06;;;;;;;2.95;0.77;;;;;;;;;;4715943;30;20079;-61
2022/06/08 07:23:34;;;;;;;3.38;0.70;;;;;;;;;;4717073;30;20063;-58
2022/06/08 07:26:01;;;;;;;2.85;0.80;;;;;;;;;;4717301;30;20124;-61
2022/06/08 07:28:28;;;;;;;1.08;0.68;;;;;;;;;;4717165;30;20041;-62
2022/06/08 07:30:56;;;;;;;1.98;1.15;;;;;;;;;;4717157;30;20076;-61
2022/06/08 07:33:23;;;;;;;3.33;0.70;;;;;;;;;;4717074;30;20056;-61
2022/06/08 07:35:50;;;;;;;3.63;0.80;;;;;;;;;;4716988;30;20509;-61
2022/06/08 07:38:22;;;;;;;4.60;1.10;;;;;;;;;;4716864;30;20580;-61
2022/06/08 07:40:50;;;;;;;1.30;0.60;;;;;;;;;;4717031;30;20049;-62
2022/06/08 07:43:17;;;;;;;3.10;0.63;;;;;;;;;;4727816;30;20049;-61
2022/06/08 07:45:44;;;;;;;2.10;0.70;;;;;;;;;;4734597;30;20509;-61
2022/06/08 07:50:57;;;;;;;2.63;1.00;;;;;;;;;;4734400;30;20045;-62
2022/06/08 07:53:25;;;;;;;2.53;0.52;;;;;;;;;;4733396;30;20053;-61
2022/06/08 07:55:52;;;;;;;3.03;0.60;;;;;;;;;;4734310;30;20410;-61
2022/06/08 07:58:19;;;;;;;2.15;0.82;;;;;;;;;;4733986;30;20045;-60
2022/06/08 08:00:47;;;;;;;2.75;0.60;;;;;;;;;;4747430;30;20048;-61
2022/06/08 08:03:16;;;;;;;2.55;0.80;;;;;;;;;;4734061;30;20044;-61
2022/06/08 08:05:47;;;;;;;1.25;0.77;;;;;;;;;;4734059;30;20511;-61
2022/06/08 08:08:17;;;;;;;3.70;0.82;;;;;;;;;;4734223;30;20044;-61
2022/06/08 08:10:45;;;;;;;1.58;0.90;;;;;;;;;;4734083;30;20128;-61
2022/06/08 08:13:16;;;;;;;1.88;0.80;;;;;;;;;;4734041;30;20052;-55
2022/06/08 08:15:44;;;;;;;3.63;0.80;;;;;;;;;;4734104;30;20083;-64
2022/06/08 08:18:12;;;;;;;2.25;0.70;;;;;;;;;;4733946;30;20147;-60
2022/06/08 08:20:40;;;;;;;1.83;0.80;;;;;;;;;;4733955;30;20052;-61
2022/06/08 08:23:07;;;;;;;1.50;0.80;;;;;;;;;;4734116;30;20477;-61
2022/06/08 08:25:35;;;;;;;1.45;1.00;;;;;;;;;;4734036;30;20052;-61
2022/06/08 08:28:03;;;;;;;1.60;0.80;;;;;;;;;;4733987;30;20048;-61
2022/06/08 08:30:31;;;;;;;1.15;0.70;;;;;;;;;;4734104;30;20083;-61
2022/06/08 08:32:59;;;;;;;2.55;0.80;;;;;;;;;;4733802;30;20083;-61
2022/06/08 08:35:27;;;;;;;1.77;0.80;;;;;;;;;;4733812;30;20593;-60
2022/06/08 08:37:56;;;;;;;3.08;0.70;;;;;;;;;;4733655;30;20045;-60
2022/06/08 08:40:39;;;;;;;2.60;1.10;;;;;;;;;;4733798;30;20567;-54
2022/06/08 08:43:09;;;;;;;1.88;0.93;;;;;;;;;;4733656;30;20472;-61
2022/06/08 08:45:52;;;;;;;2.92;1.38;;;;;;;;;;4733797;30;20051;-60
2022/06/08 08:48:27;;;;;;;1.73;1.05;;;;;;;;;;4733750;30;20154;-61
2022/06/08 08:51:09;;;;;;;1.95;1.20;;;;;;;;;;4733650;30;20579;-61
2022/06/08 08:53:46;;;;;;;3.97;1.13;;;;;;;;;;4747045;30;20060;-61
2022/06/08 08:56:20;;;;;;;5.72;0.98;;;;;;;;;;4733552;30;20092;-61
2022/06/08 08:58:48;;;;;;;4.43;0.80;;;;;;;;;;4733502;30;20119;-60
2022/06/08 09:01:35;;;;;;;1.10;0.70;;;;;;;;;;4733308;30;20056;-61
2022/06/08 09:04:05;;;;;;;5.32;0.85;;;;;;;;;;4733700;30;20529;-61
2022/06/08 09:06:35;;;;;;;4.30;0.80;;;;;;;;;;4737029;30;20418;-61
2022/06/08 09:09:12;;;;;;;1.50;0.90;;;;;;;;;;4737089;30;20085;-62
2022/06/08 09:11:43;;;;;;;4.60;0.95;;;;;;;;;;4736810;30;20043;-60
2022/06/08 09:14:52;;;;;;;2.55;0.90;;;;;;;;;;4736839;30;20044;-62
2022/06/08 09:17:36;;;;;;;1.52;0.80;;;;;;;;;;4736713;30;20049;-61
2022/06/08 09:20:35;;;;;;;1.48;0.77;;;;;;;;;;4736731;30;20101;-61
2022/06/08 09:23:20;;;;;;;4.18;0.80;;;;;;;;;;4736855;30;20426;-61
2022/06/08 09:26:10;;;;;;;2.85;1.00;;;;;;;;;;4736574;30;20057;-61
2022/06/08 09:28:41;;;;;;;2.13;0.70;;;;;;;;;;4736579;30;20041;-61
2022/06/08 09:31:33;;;;;;;6.47;0.85;;;;;;;;;;4736558;30;20082;-61
2022/06/08 09:34:19;;;;;;;6.75;0.85;;;;;;;;;;4736743;30;20051;-61
2022/06/08 09:37:20;;;;;;;8.27;0.80;;;;;;;;;;4736317;30;20060;-61
2022/06/08 09:39:48;;;;;;;1.38;0.88;;;;;;;;;;4749969;30;20406;-62
2022/06/08 09:42:38;;;;;;;1.55;0.57;;;;;;;;;;4735214;30;20513;-61
2022/06/08 09:45:39;;;;;;;1.33;0.60;;;;;;;;;;4736146;30;20482;-61
2022/06/08 09:51:25;;;;;;;2.97;0.50;;;;;;;;;;4736421;30;20057;-61
2022/06/08 09:54:05;;;;;;;5.43;1.02;;;;;;;;;;4736301;30;20099;-61
2022/06/08 09:57:13;;;;;;;1.85;0.75;;;;;;;;;;4736454;30;20102;-60
2022/06/08 09:59:59;;;;;;;2.58;0.50;;;;;;;;;;4735199;30;20057;-61
2022/06/08 10:03:11;;;;;;;3.25;0.70;;;;;;;;;;4736022;30;20087;-61
2022/06/08 10:06:04;;;;;;;1.67;0.98;;;;;;;;;;4736107;30;20048;-62
2022/06/08 10:08:52;;;;;;;2.22;0.70;;;;;;;;;;4736250;30;20055;-61
2022/06/08 10:11:50;;;;;;;4.10;0.52;;;;;;;;;;4735766;30;20053;-61
2022/06/08 10:14:50;;;;;;;1.88;0.70;;;;;;;;;;4735641;30;20056;-61
2022/06/08 10:17:18;;;;;;;2.47;0.57;;;;;;;;;;4734817;30;20076;-61
2022/06/08 10:20:12;;;;;;;1.15;0.50;;;;;;;;;;4734433;30;20506;-60
2022/06/08 10:22:43;;;;;;;4.07;0.98;;;;;;;;;;4735702;30;20131;-61
2022/06/08 10:25:22;;;;;;;1.10;0.40;;;;;;;;;;4735647;30;20048;-61
2022/06/08 10:27:56;;;;;;;1.02;0.65;;;;;;;;;;4735684;30;20049;-61
2022/06/08 10:30:33;;;;;;;1.55;0.50;;;;;;;;;;4735451;30;20836;-61
2022/06/08 10:33:05;;;;;;;2.95;0.73;;;;;;;;;;4735575;30;20102;-61
2022/06/08 10:35:54;;;;;;;1.58;0.70;;;;;;;;;;4749072;30;20084;-61
2022/06/08 10:38:26;;;;;;;4.22;0.73;;;;;;;;;;4735456;30;20075;-61
2022/06/08 10:41:02;;;;;;;3.85;0.50;;;;;;;;;;4735464;30;20045;-61
2022/06/08 10:43:32;;;;;;;2.58;0.80;;;;;;;;;;4735348;30;20045;-61
2022/06/08 10:46:05;;;;;;;2.42;0.63;;;;;;;;;;4735478;30;20092;-61
2022/06/08 10:48:45;;;;;;;2.40;0.70;;;;;;;;;;4735189;30;20452;-58
2022/06/08 10:51:16;;;;;;;3.63;0.80;;;;;;;;;;4735289;30;20107;-61
2022/06/08 10:56:55;;;;;;;3.67;0.82;;;;;;;;;;4734900;30;20238;-61
2022/06/08 10:59:29;;;;;;;5.25;0.70;;;;;;;;;;4733732;30;20409;-61
2022/06/08 11:02:10;;;;;;;3.58;0.80;;;;;;;;;;4734932;30;20049;-61
2022/06/08 11:04:49;;;;;;;3.13;1.25;;;;;;;;;;4734907;30;20484;-61
2022/06/08 11:07:22;;;;;;;3.38;1.00;;;;;;;;;;4734959;30;20099;-62
2022/06/08 11:09:55;;;;;;;5.27;1.00;;;;;;;;;;4734798;30;20056;-61
2022/06/08 11:12:30;;;;;;;4.18;0.70;;;;;;;;;;4734767;30;20049;-61
2022/06/08 11:15:34;;;;;;;4.32;1.05;;;;;;;;;;4734883;30;20114;-59
2022/06/08 11:18:15;;;;;;;2.00;0.90;;;;;;;;;;4734676;30;20446;-69
2022/06/08 11:20:47;;;;;;;1.42;0.70;;;;;;;;;;4734717;30;20055;-59
2022/06/08 11:23:21;;;;;;;2.55;1.00;;;;;;;;;;4734587;30;20056;-61
2022/06/08 11:26:06;;;;;;;;;;;;;;;;;;4735065;30;20527;-61
2022/06/08 11:28:39;;;;;;;1.15;0.77;;;;;;;;;;4734822;30;20005;-58
2022/06/08 11:31:32;;;;;;;3.45;0.98;;;;;;;;;;4747849;30;20128;-61
2022/06/08 11:34:26;;;;;;;3.88;0.80;;;;;;;;;;4748165;30;20060;-61
2022/06/08 11:37:17;;;;;;;2.55;0.70;;;;;;;;;;4734614;30;20076;-61
2022/06/08 11:40:13;;;;;;;4.10;0.80;;;;;;;;;;4734496;30;20128;-61
2022/06/08 11:42:53;;;;;;;2.25;0.90;;;;;;;;;;4734519;30;20053;-61
2022/06/08 11:45:40;;;;;;;3.40;0.77;;;;;;;;;;4734202;30;20378;-59
2022/06/08 11:48:16;;;;;;;4.45;0.98;;;;;;;;;;4734379;30;20738;-61
2022/06/08 11:50:50;;;;;;;3.33;0.88;;;;;;;;;;4734096;30;20098;-61
2022/06/08 11:53:31;;;;;;;1.10;0.70;;;;;;;;;;4733020;30;20059;-61
2022/06/08 11:56:06;;;;;;;4.40;0.90;;;;;;;;;;4734304;30;20083;-61
2022/06/08 11:58:35;;;;;;;2.33;0.88;;;;;;;;;;4734203;30;20092;-61
2022/06/08 12:01:24;;;;;;;1.75;0.80;;;;;;;;;;4733185;30;20048;-60
2022/06/08 12:04:00;;;;;;;3.20;1.23;;;;;;;;;;4733213;30;20580;-62
2022/06/08 12:06:33;;;;;;;4.75;1.08;;;;;;;;;;4733646;30;20387;-58
2022/06/08 12:09:23;;;;;;;10.20;4.00;;;;;;;;;;4734067;30;20417;-61
2022/06/08 12:11:54;;;;;;;3.58;1.42;;;;;;;;;;4733739;30;20057;-61
2022/06/08 12:14:21;;;;;;;1.35;0.77;;;;;;;;;;4733933;30;20148;-61
2022/06/08 12:16:59;;;;;;;3.10;1.10;;;;;;;;;;4733744;30;20501;-61
2022/06/08 12:19:42;;;;;;;1.85;0.80;;;;;;;;;;4733671;30;20053;-61
2022/06/08 12:22:21;;;;;;;3.83;0.90;;;;;;;;;;4733862;30;20049;-61
2022/06/08 12:25:16;;;;;;;1.70;0.80;;;;;;;;;;4733907;30;20056;-71
2022/06/08 12:27:53;;;;;;;10.02;5.25;;;;;;;;;;4733887;30;20059;-62
2022/06/08 12:30:26;;;;;;;2.45;1.02;;;;;;;;;;4733814;30;20406;-61
2022/06/08 12:33:03;;;;;;;2.53;0.80;;;;;;;;;;4733889;30;20088;-61
2022/06/08 12:35:38;;;;;;;4.10;0.80;;;;;;;;;;4733967;30;20294;-61
2022/06/08 12:38:16;;;;;;;2.72;1.10;;;;;;;;;;4733579;30;20095;-61
2022/06/08 12:40:59;;;;;;;2.45;0.80;;;;;;;;;;4736274;30;20464;-62
2022/06/08 12:43:54;;;;;;;2.03;0.75;;;;;;;;;;4737237;30;20506;-60
2022/06/08 12:46:28;;;;;;;2.65;0.90;;;;;;;;;;4736444;30;20064;-62
2022/06/08 12:49:00;;;;;;;1.10;0.60;;;;;;;;;;4737308;30;20067;-65
2022/06/08 12:51:40;;;;;;;2.35;0.90;;;;;;;;;;4736854;30;20053;-61
2022/06/08 12:54:20;;;;;;;2.28;1.10;;;;;;;;;;4737078;30;20052;-60
2022/06/08 12:56:51;;;;;;;2.08;0.70;;;;;;;;;;4736959;30;20044;-61
2022/06/08 12:59:21;;;;;;;4.18;0.70;;;;;;;;;;4736864;30;20060;-62
2022/06/08 13:02:11;;;;;;;1.33;0.80;;;;;;;;;;4737238;30;20610;-62
2022/06/08 13:04:38;;;;;;;3.85;1.08;;;;;;;;;;4736725;30;20080;-62
2022/06/08 13:07:06;;;;;;;2.70;1.02;;;;;;;;;;4736664;30;20063;-60
2022/06/08 13:09:33;;;;;;;1.80;0.98;;;;;;;;;;4737075;30;20130;-61
2022/06/08 13:12:00;;;;;;;2.95;1.00;;;;;;;;;;4737102;30;20044;-62
2022/06/08 13:14:28;;;;;;;3.65;1.00;;;;;;;;;;4736737;30;20044;-63
2022/06/08 13:16:56;;;;;;;9.50;1.15;;;;;;;;;;4736713;30;20052;-61
2022/06/08 13:19:26;;;;;;;2.03;1.20;;;;;;;;;;4736450;30;20080;-61
2022/06/08 13:21:53;;;;;;;4.90;1.15;;;;;;;;;;4736505;30;20053;-61
2022/06/08 13:24:21;;;;;;;2.03;1.17;;;;;;;;;;4736653;30;20139;-60
2022/06/08 13:26:48;;;;;;;1.98;1.00;;;;;;;;;;4736588;30;20040;-60
2022/06/08 13:29:20;;;;;;;2.80;1.10;;;;;;;;;;4736537;30;20521;-61
2022/06/08 13:31:48;;;;;;;2.95;1.02;;;;;;;;;;4736523;30;20102;-61
2022/06/08 13:34:19;;;;;;;2.83;0.90;;;;;;;;;;4736264;30;20060;-62
2022/06/08 13:37:04;;;;;;;4.43;1.50;;;;;;;;;;4736233;30;20536;-61
2022/06/08 13:39:35;;;;;;;5.70;1.77;;;;;;;;;;4736525;30;20059;-63
2022/06/08 13:42:11;;;;;;;3.30;1.20;;;;;;;;;;4736539;30;20048;-63
2022/06/08 13:44:42;;;;;;;1.90;0.90;;;;;;;;;;4736135;30;20079;-62
2022/06/08 13:47:16;;;;;;;5.65;2.88;;;;;;;;;;4736139;30;20056;-60
2022/06/08 13:49:48;;;;;;;4.47;1.98;;;;;;;;;;4736172;30;20056;-61
2022/06/08 13:52:18;;;;;;;2.75;1.50;;;;;;;;;;4735970;30;20098;-61
2022/06/08 13:54:52;;;;;;;3.30;1.23;;;;;;;;;;4736055;30;20068;-60
2022/06/08 13:57:21;;;;;;;7.13;1.30;;;;;;;;;;4735673;30;20395;-61
2022/06/08 13:59:48;;;;;;;3.58;1.20;;;;;;;;;;4735920;30;20052;-61
2022/06/08 14:02:23;;;;;;;2.47;1.20;;;;;;;;;;4735936;30;20055;-62
2022/06/08 14:04:54;;;;;;;5.22;1.88;;;;;;;;;;4735748;30;20061;-61
2022/06/08 14:13:21;;;;;;;2.88;1.27;;;;;;;;;;4735790;30;20045;-63
2022/06/08 14:15:52;;;;;;;2.05;1.20;;;;;;;;;;4735660;30;20387;-62
2022/06/08 14:18:27;;;;;;;1.75;1.10;;;;;;;;;;4735822;30;20056;-61
2022/06/08 14:20:57;;;;;;;2.97;1.10;;;;;;;;;;4735619;30;20337;-61
2022/06/08 14:23:25;;;;;;;1.98;1.10;;;;;;;;;;4735556;30;20572;-62
2022/06/08 14:25:54;;;;;;;2.42;1.10;;;;;;;;;;4735492;30;20041;-59
2022/06/08 14:28:45;;;;;;;2.25;1.17;;;;;;;;;;4735561;30;20045;-61
2022/06/08 14:31:20;;;;;;;4.88;1.35;;;;;;;;;;4735450;30;20075;-62
2022/06/08 14:33:49;;;;;;;6.22;1.30;;;;;;;;;;4735513;30;20044;-61
2022/06/08 14:36:19;;;;;;;4.07;1.80;;;;;;;;;;4735306;30;20053;-61
2022/06/08 14:39:07;;;;;;;1.80;1.15;;;;;;;;;;4735058;30;20509;-59
2022/06/08 14:41:40;;;;;;;4.20;1.50;;;;;;;;;;4735548;30;20048;-61
2022/06/08 14:44:12;;;;;;;2.72;1.27;;;;;;;;;;4735239;30;20049;-61
2022/06/08 14:46:53;;;;;;;2.20;1.20;;;;;;;;;;4735260;30;20048;-60
2022/06/08 14:49:25;;;;;;;2.35;1.35;;;;;;;;;;4748565;30;20094;-59
2022/06/08 14:51:55;;;;;;;7.37;3.37;;;;;;;;;;4735280;30;20059;-58
2022/06/08 14:54:27;;;;;;;6.70;3.72;;;;;;;;;;4735001;30;20041;-58
2022/06/08 14:57:06;;;;;;;6.50;1.92;;;;;;;;;;4735081;30;20072;-59
2022/06/08 14:59:40;;;;;;;4.72;1.80;;;;;;;;;;4745436;30;20138;-61
2022/06/08 15:02:32;;;;;;;2.65;1.38;;;;;;;;;;4717226;30;20084;-62
2022/06/08 15:05:02;;;;;;;5.43;1.50;;;;;;;;;;4717393;30;20066;-62
2022/06/08 15:07:31;;;;;;;2.63;1.40;;;;;;;;;;4717238;30;20057;-62
2022/06/08 15:09:58;;;;;;;4.72;1.40;;;;;;;;;;4717398;30;20045;-63
2022/06/08 15:12:28;;;;;;;4.00;1.58;;;;;;;;;;4717384;30;20057;-61
2022/06/08 15:14:59;;;;;;;3.10;1.30;;;;;;;;;;4717293;30;20045;-63
2022/06/08 15:17:31;;;;;;;2.47;1.40;;;;;;;;;;4717302;30;20064;-62
2022/06/08 15:20:08;;;;;;;4.45;1.55;;;;;;;;;;4716996;30;20565;-62
2022/06/08 15:22:36;;;;;;;2.05;1.48;;;;;;;;;;4745381;30;20092;-62
2022/06/08 15:25:08;;;;;;;5.60;2.60;;;;;;;;;;4717170;30;20099;-63
2022/06/08 15:27:42;;;;;;;2.78;1.52;;;;;;;;;;4717299;30;20045;-62
2022/06/08 15:30:15;;;;;;;2.42;1.48;;;;;;;;;;4717138;30;20056;-62
2022/06/08 15:32:42;;;;;;;4.17;1.50;;;;;;;;;;4717161;30;20061;-60
2022/06/08 15:35:14;;;;;;;19.90;9.38;;;;;;;;;;4716737;30;20348;-67
2022/06/08 15:37:43;;;;;;;5.15;2.75;;;;;;;;;;4717070;30;20045;-63
2022/06/08 15:40:22;;;;;;;5.25;1.73;;;;;;;;;;4716793;30;20099;-62
2022/06/08 15:42:50;;;;;;;2.95;1.20;;;;;;;;;;4716950;30;20052;-59
2022/06/08 15:45:18;;;;;;;2.05;1.33;;;;;;;;;;4716626;30;20049;-61
2022/06/08 15:48:01;;;;;;;3.28;1.30;;;;;;;;;;4716839;30;20087;-61
2022/06/08 15:50:33;;;;;;;2.78;1.42;;;;;;;;;;4716736;30;20057;-62
2022/06/08 15:53:04;;;;;;;3.30;1.20;;;;;;;;;;4716854;30;20413;-63